sensor_id;sensor_type;location;lat;lon;timestamp;pressure;altitude;pressure_sealevel;temperature;humidity
10921;BME280;5513;50.580;8.818;2022-08-21T00:02:21;99097.72;;;20.77;100.00
10921;BME280;5513;50.580;8.818;2022-08-21T00:04:51;99092.19;;;20.86;100.00
10921;BME280;5513;50.580;8.818;2022-08-21T00:07:24;99091.81;;;20.81;100.00
10921;BME280;5513;50.580;8.818;2022-08-21T00:09:53;99096.41;;;20.97;100.00
10921;BME280;5513;50.580;8.818;2022-08-21T00:12:22;99091.88;;;21.06;100.00
10921;BME280;5513;50.580;8.818;2022-08-21T00:14:52;99098.72;;;20.76;100.00
10921;BME280;5513;50.580;8.818;2022-08-21T00:17:25;99095.88;;;20.85;100.00
10921;BME280;5513;50.580;8.818;2022-08-21T00:19:54;99088.09;;;20.74;100.00
10921;BME280;5513;50.580;8.818;2022-08-21T00:22:24;99075.75;;;20.55;100.00
10921;BME280;5513;50.580;8.818;2022-08-21T00:24:53;99083.88;;;20.64;100.00
10921;BME280;5513;50.580;8.818;2022-08-21T00:27:22;99074.50;;;20.42;100.00
10921;BME280;5513;50.580;8.818;2022-08-21T00:29:51;99080.00;;;20.58;100.00
10921;BME280;5513;50.580;8.818;2022-08-21T00:32:23;99075.06;;;20.45;100.00
10921;BME280;5513;50.580;8.818;2022-08-21T00:34:52;99074.38;;;20.43;100.00
10921;BME280;5513;50.580;8.818;2022-08-21T00:37:22;99075.63;;;20.23;100.00
10921;BME280;5513;50.580;8.818;2022-08-21T00:39:50;99078.66;;;20.20;100.00
10921;BME280;5513;50.580;8.818;2022-08-21T00:42:21;99072.59;;;20.26;100.00
10921;BME280;5513;50.580;8.818;2022-08-21T00:44:50;99067.34;;;20.16;100.00
10921;BME280;5513;50.580;8.818;2022-08-21T00:47:20;99076.50;;;19.97;100.00
10921;BME280;5513;50.580;8.818;2022-08-21T00:49:54;99082.59;;;19.99;100.00
10921;BME280;5513;50.580;8.818;2022-08-21T00:52:29;99074.25;;;19.85;100.00
10921;BME280;5513;50.580;8.818;2022-08-21T00:55:01;99069.41;;;19.88;100.00
10921;BME280;5513;50.580;8.818;2022-08-21T00:57:38;99071.81;;;19.99;100.00
10921;BME280;5513;50.580;8.818;2022-08-21T01:00:15;99070.28;;;19.97;100.00
10921;BME280;5513;50.580;8.818;2022-08-21T01:02:45;99071.09;;;19.89;100.00
10921;BME280;5513;50.580;8.818;2022-08-21T01:05:14;99068.66;;;19.78;100.00
10921;BME280;5513;50.580;8.818;2022-08-21T01:07:44;99080.22;;;19.70;100.00
10921;BME280;5513;50.580;8.818;2022-08-21T01:10:13;99071.44;;;19.60;100.00
10921;BME280;5513;50.580;8.818;2022-08-21T01:12:50;99075.25;;;19.58;100.00
10921;BME280;5513;50.580;8.818;2022-08-21T01:15:21;99068.75;;;19.60;100.00
10921;BME280;5513;50.580;8.818;2022-08-21T01:17:52;99074.47;;;19.48;100.00
10921;BME280;5513;50.580;8.818;2022-08-21T01:20:21;99068.41;;;19.45;100.00
10921;BME280;5513;50.580;8.818;2022-08-21T01:23:00;99072.94;;;19.45;100.00
10921;BME280;5513;50.580;8.818;2022-08-21T01:25:28;99076.66;;;19.26;100.00
10921;BME280;5513;50.580;8.818;2022-08-21T01:28:01;99079.41;;;19.34;100.00
10921;BME280;5513;50.580;8.818;2022-08-21T01:30:33;99075.13;;;19.41;100.00
10921;BME280;5513;50.580;8.818;2022-08-21T01:33:04;99076.50;;;19.28;100.00
10921;BME280;5513;50.580;8.818;2022-08-21T01:35:38;99079.44;;;18.99;100.00
10921;BME280;5513;50.580;8.818;2022-08-21T01:38:14;99084.44;;;18.94;100.00
10921;BME280;5513;50.580;8.818;2022-08-21T01:40:44;99083.38;;;18.86;100.00
10921;BME280;5513;50.580;8.818;2022-08-21T01:43:12;99080.00;;;18.57;100.00
10921;BME280;5513;50.580;8.818;2022-08-21T01:45:51;99082.91;;;18.46;100.00
10921;BME280;5513;50.580;8.818;2022-08-21T01:48:20;99079.97;;;18.67;100.00
10921;BME280;5513;50.580;8.818;2022-08-21T01:50:49;99078.81;;;18.42;100.00
10921;BME280;5513;50.580;8.818;2022-08-21T01:53:25;99080.81;;;18.40;100.00
10921;BME280;5513;50.580;8.818;2022-08-21T01:56:00;99079.97;;;18.39;100.00
10921;BME280;5513;50.580;8.818;2022-08-21T01:58:28;99082.50;;;18.41;100.00
10921;BME280;5513;50.580;8.818;2022-08-21T02:00:56;99075.66;;;18.28;100.00
10921;BME280;5513;50.580;8.818;2022-08-21T02:03:25;99077.38;;;18.20;100.00
10921;BME280;5513;50.580;8.818;2022-08-21T02:06:02;99070.59;;;18.25;100.00
10921;BME280;5513;50.580;8.818;2022-08-21T02:08:32;99075.66;;;17.91;100.00
10921;BME280;5513;50.580;8.818;2022-08-21T02:11:01;99069.78;;;17.88;100.00
10921;BME280;5513;50.580;8.818;2022-08-21T02:13:29;99078.41;;;17.62;100.00
10921;BME280;5513;50.580;8.818;2022-08-21T02:15:58;99064.72;;;17.65;100.00
10921;BME280;5513;50.580;8.818;2022-08-21T02:18:27;99066.44;;;17.57;100.00
10921;BME280;5513;50.580;8.818;2022-08-21T02:20:56;99062.34;;;17.62;100.00
10921;BME280;5513;50.580;8.818;2022-08-21T02:23:26;99061.41;;;17.34;100.00
10921;BME280;5513;50.580;8.818;2022-08-21T02:26:04;99061.56;;;17.23;100.00
10921;BME280;5513;50.580;8.818;2022-08-21T02:28:35;99063.94;;;17.26;100.00
10921;BME280;5513;50.580;8.818;2022-08-21T02:31:04;99062.72;;;17.21;100.00
10921;BME280;5513;50.580;8.818;2022-08-21T02:33:33;99055.38;;;17.23;100.00
10921;BME280;5513;50.580;8.818;2022-08-21T02:36:03;99059.59;;;17.06;100.00
10921;BME280;5513;50.580;8.818;2022-08-21T02:38:33;99062.28;;;16.96;100.00
10921;BME280;5513;50.580;8.818;2022-08-21T02:41:11;99060.59;;;16.95;100.00
10921;BME280;5513;50.580;8.818;2022-08-21T02:43:40;99061.19;;;16.99;100.00
10921;BME280;5513;50.580;8.818;2022-08-21T02:46:10;99065.78;;;16.97;100.00
10921;BME280;5513;50.580;8.818;2022-08-21T02:48:42;99066.38;;;16.91;100.00
10921;BME280;5513;50.580;8.818;2022-08-21T02:51:13;99062.97;;;16.98;100.00
10921;BME280;5513;50.580;8.818;2022-08-21T02:53:42;99060.59;;;16.95;100.00
10921;BME280;5513;50.580;8.818;2022-08-21T02:56:15;99057.38;;;16.92;100.00
10921;BME280;5513;50.580;8.818;2022-08-21T02:58:46;99064.56;;;17.01;100.00
10921;BME280;5513;50.580;8.818;2022-08-21T03:01:15;99066.25;;;16.92;100.00
10921;BME280;5513;50.580;8.818;2022-08-21T03:03:46;99057.63;;;16.79;100.00
10921;BME280;5513;50.580;8.818;2022-08-21T03:06:19;99056.94;;;16.77;100.00
10921;BME280;5513;50.580;8.818;2022-08-21T03:08:48;99054.53;;;16.74;100.00
10921;BME280;5513;50.580;8.818;2022-08-21T03:11:19;99054.53;;;16.74;100.00
10921;BME280;5513;50.580;8.818;2022-08-21T03:13:49;99053.97;;;16.70;100.00
10921;BME280;5513;50.580;8.818;2022-08-21T03:16:19;99054.78;;;16.61;100.00
10921;BME280;5513;50.580;8.818;2022-08-21T03:18:47;99061.53;;;16.65;100.00
10921;BME280;5513;50.580;8.818;2022-08-21T03:21:18;99065.34;;;16.63;100.00
10921;BME280;5513;50.580;8.818;2022-08-21T03:23:46;99066.88;;;16.65;100.00
10921;BME280;5513;50.580;8.818;2022-08-21T03:26:16;99069.44;;;16.76;100.00
10921;BME280;5513;50.580;8.818;2022-08-21T03:28:48;99067.34;;;16.70;100.00
10921;BME280;5513;50.580;8.818;2022-08-21T03:31:17;99063.69;;;16.71;100.00
10921;BME280;5513;50.580;8.818;2022-08-21T03:33:50;99071.28;;;16.76;100.00
10921;BME280;5513;50.580;8.818;2022-08-21T03:36:21;99071.28;;;16.76;100.00
10921;BME280;5513;50.580;8.818;2022-08-21T03:38:50;99072.09;;;16.67;100.00
10921;BME280;5513;50.580;8.818;2022-08-21T03:41:18;99061.69;;;16.64;100.00
10921;BME280;5513;50.580;8.818;2022-08-21T03:43:48;99073.56;;;16.71;100.00
10921;BME280;5513;50.580;8.818;2022-08-21T03:46:17;99069.19;;;16.70;100.00
10921;BME280;5513;50.580;8.818;2022-08-21T03:48:46;99076.09;;;16.72;100.00
10921;BME280;5513;50.580;8.818;2022-08-21T03:51:15;99077.31;;;16.68;100.00
10921;BME280;5513;50.580;8.818;2022-08-21T03:53:43;99080.72;;;16.70;100.00
10921;BME280;5513;50.580;8.818;2022-08-21T03:56:13;99073.19;;;16.54;100.00
10921;BME280;5513;50.580;8.818;2022-08-21T03:58:43;99081.78;;;16.58;100.00
10921;BME280;5513;50.580;8.818;2022-08-21T04:01:13;99078.00;;;16.60;100.00
10921;BME280;5513;50.580;8.818;2022-08-21T04:03:44;99083.91;;;16.54;100.00
10921;BME280;5513;50.580;8.818;2022-08-21T04:06:13;99094.28;;;16.48;100.00
10921;BME280;5513;50.580;8.818;2022-08-21T04:08:41;99102.00;;;16.31;100.00
10921;BME280;5513;50.580;8.818;2022-08-21T04:11:10;99103.53;;;16.24;100.00
10921;BME280;5513;50.580;8.818;2022-08-21T04:13:38;99101.03;;;16.33;100.00
10921;BME280;5513;50.580;8.818;2022-08-21T04:16:10;99104.53;;;16.33;100.00
10921;BME280;5513;50.580;8.818;2022-08-21T04:18:41;99108.75;;;16.36;100.00
10921;BME280;5513;50.580;8.818;2022-08-21T04:21:10;99106.94;;;16.46;100.00
10921;BME280;5513;50.580;8.818;2022-08-21T04:23:42;99112.59;;;16.43;100.00
10921;BME280;5513;50.580;8.818;2022-08-21T04:26:10;99117.41;;;16.18;100.00
10921;BME280;5513;50.580;8.818;2022-08-21T04:28:39;99119.69;;;16.23;100.00
10921;BME280;5513;50.580;8.818;2022-08-21T04:31:10;99107.03;;;16.25;100.00
10921;BME280;5513;50.580;8.818;2022-08-21T04:33:40;99121.91;;;16.18;100.00
10921;BME280;5513;50.580;8.818;2022-08-21T04:36:10;99120.41;;;16.25;100.00
10921;BME280;5513;50.580;8.818;2022-08-21T04:38:49;99126.13;;;16.20;100.00
10921;BME280;5513;50.580;8.818;2022-08-21T04:41:18;99124.19;;;16.22;100.00
10921;BME280;5513;50.580;8.818;2022-08-21T04:43:54;99130.16;;;16.36;100.00
10921;BME280;5513;50.580;8.818;2022-08-21T04:46:24;99126.31;;;16.28;100.00
10921;BME280;5513;50.580;8.818;2022-08-21T04:48:57;99129.78;;;16.19;100.00
10921;BME280;5513;50.580;8.818;2022-08-21T04:51:29;99138.09;;;16.16;100.00
10921;BME280;5513;50.580;8.818;2022-08-21T04:54:05;99135.09;;;16.10;100.00
10921;BME280;5513;50.580;8.818;2022-08-21T04:56:39;99136.06;;;16.09;100.00
10921;BME280;5513;50.580;8.818;2022-08-21T04:59:14;99141.03;;;16.13;100.00
10921;BME280;5513;50.580;8.818;2022-08-21T05:01:44;99143.09;;;16.10;100.00
10921;BME280;5513;50.580;8.818;2022-08-21T05:04:18;99141.69;;;16.06;100.00
10921;BME280;5513;50.580;8.818;2022-08-21T05:06:50;99148.34;;;16.21;100.00
10921;BME280;5513;50.580;8.818;2022-08-21T05:09:21;99144.63;;;16.33;100.00
10921;BME280;5513;50.580;8.818;2022-08-21T05:11:52;99143.59;;;16.24;100.00
10921;BME280;5513;50.580;8.818;2022-08-21T05:14:21;99141.50;;;16.28;100.00
10921;BME280;5513;50.580;8.818;2022-08-21T05:16:50;99144.34;;;16.36;100.00
10921;BME280;5513;50.580;8.818;2022-08-21T05:19:23;99141.56;;;16.47;100.00
10921;BME280;5513;50.580;8.818;2022-08-21T05:21:52;99151.00;;;16.42;100.00
10921;BME280;5513;50.580;8.818;2022-08-21T05:24:21;99151.53;;;16.36;100.00
10921;BME280;5513;50.580;8.818;2022-08-21T05:26:50;99156.00;;;16.25;100.00
10921;BME280;5513;50.580;8.818;2022-08-21T05:29:20;99155.50;;;16.41;100.00
10921;BME280;5513;50.580;8.818;2022-08-21T05:31:50;99155.97;;;16.66;100.00
10921;BME280;5513;50.580;8.818;2022-08-21T05:34:20;99155.91;;;16.77;100.00
10921;BME280;5513;50.580;8.818;2022-08-21T05:36:53;99153.25;;;16.96;100.00
10921;BME280;5513;50.580;8.818;2022-08-21T05:39:22;99152.41;;;16.96;100.00
10921;BME280;5513;50.580;8.818;2022-08-21T05:41:50;99146.53;;;17.21;100.00
10921;BME280;5513;50.580;8.818;2022-08-21T05:44:18;99144.69;;;17.22;100.00
10921;BME280;5513;50.580;8.818;2022-08-21T05:46:47;99150.19;;;17.30;100.00
10921;BME280;5513;50.580;8.818;2022-08-21T05:49:16;99148.63;;;17.17;100.00
10921;BME280;5513;50.580;8.818;2022-08-21T05:51:45;99149.63;;;17.16;100.00
10921;BME280;5513;50.580;8.818;2022-08-21T05:54:15;99151.44;;;17.26;100.00
10921;BME280;5513;50.580;8.818;2022-08-21T05:56:43;99155.13;;;17.34;100.00
10921;BME280;5513;50.580;8.818;2022-08-21T05:59:12;99147.50;;;17.10;100.00
10921;BME280;5513;50.580;8.818;2022-08-21T06:01:41;99143.56;;;17.43;100.00
10921;BME280;5513;50.580;8.818;2022-08-21T06:04:10;99150.59;;;17.44;100.00
10921;BME280;5513;50.580;8.818;2022-08-21T06:06:38;99154.72;;;17.39;100.00
10921;BME280;5513;50.580;8.818;2022-08-21T06:09:07;99156.66;;;17.27;100.00
10921;BME280;5513;50.580;8.818;2022-08-21T06:11:36;99154.28;;;17.34;100.00
10921;BME280;5513;50.580;8.818;2022-08-21T06:14:06;99152.44;;;17.34;100.00
10921;BME280;5513;50.580;8.818;2022-08-21T06:16:34;99156.09;;;17.53;100.00
10921;BME280;5513;50.580;8.818;2022-08-21T06:19:04;99158.78;;;17.53;100.00
10921;BME280;5513;50.580;8.818;2022-08-21T06:21:32;99166.13;;;17.51;100.00
10921;BME280;5513;50.580;8.818;2022-08-21T06:24:01;99151.72;;;17.61;100.00
10921;BME280;5513;50.580;8.818;2022-08-21T06:26:29;99147.63;;;17.86;100.00
10921;BME280;5513;50.580;8.818;2022-08-21T06:28:59;99152.41;;;17.83;100.00
10921;BME280;5513;50.580;8.818;2022-08-21T06:31:27;99148.56;;;17.95;100.00
10921;BME280;5513;50.580;8.818;2022-08-21T06:33:59;99141.91;;;18.09;100.00
10921;BME280;5513;50.580;8.818;2022-08-21T06:36:30;99146.59;;;18.07;100.00
10921;BME280;5513;50.580;8.818;2022-08-21T06:38:59;99150.03;;;18.26;100.00
10921;BME280;5513;50.580;8.818;2022-08-21T06:41:41;99145.81;;;18.24;100.00
10921;BME280;5513;50.580;8.818;2022-08-21T06:44:12;99143.53;;;18.29;100.00
10921;BME280;5513;50.580;8.818;2022-08-21T06:46:43;99149.00;;;18.37;100.00
10921;BME280;5513;50.580;8.818;2022-08-21T06:49:13;99142.84;;;18.54;100.00
10921;BME280;5513;50.580;8.818;2022-08-21T06:51:47;99149.00;;;18.74;100.00
10921;BME280;5513;50.580;8.818;2022-08-21T06:54:15;99143.22;;;18.69;100.00
10921;BME280;5513;50.580;8.818;2022-08-21T06:56:45;99150.13;;;18.62;100.00
10921;BME280;5513;50.580;8.818;2022-08-21T06:59:15;99141.09;;;18.73;100.00
10921;BME280;5513;50.580;8.818;2022-08-21T07:01:43;99149.88;;;18.93;100.00
10921;BME280;5513;50.580;8.818;2022-08-21T07:04:12;99139.13;;;19.10;100.00
10921;BME280;5513;50.580;8.818;2022-08-21T07:06:41;99140.28;;;19.08;100.00
10921;BME280;5513;50.580;8.818;2022-08-21T07:09:10;99142.03;;;18.99;100.00
10921;BME280;5513;50.580;8.818;2022-08-21T07:11:38;99144.56;;;19.19;100.00
10921;BME280;5513;50.580;8.818;2022-08-21T07:14:14;99136.44;;;19.46;100.00
10921;BME280;5513;50.580;8.818;2022-08-21T07:16:46;99130.28;;;19.54;100.00
10921;BME280;5513;50.580;8.818;2022-08-21T07:19:14;99127.06;;;19.68;100.00
10921;BME280;5513;50.580;8.818;2022-08-21T07:21:43;99127.06;;;19.50;100.00
10921;BME280;5513;50.580;8.818;2022-08-21T07:24:13;99129.53;;;19.87;100.00
10921;BME280;5513;50.580;8.818;2022-08-21T07:26:45;99128.56;;;19.88;100.00
10921;BME280;5513;50.580;8.818;2022-08-21T07:29:15;99130.31;;;20.06;100.00
10921;BME280;5513;50.580;8.818;2022-08-21T07:31:44;99132.63;;;20.26;100.00
10921;BME280;5513;50.580;8.818;2022-08-21T07:34:13;99124.66;;;20.09;100.00
10921;BME280;5513;50.580;8.818;2022-08-21T07:36:44;99130.75;;;20.19;100.00
10921;BME280;5513;50.580;8.818;2022-08-21T07:39:14;99117.72;;;20.40;100.00
10921;BME280;5513;50.580;8.818;2022-08-21T07:41:43;99114.78;;;20.51;100.00
10921;BME280;5513;50.580;8.818;2022-08-21T07:44:11;99103.94;;;20.77;100.00
10921;BME280;5513;50.580;8.818;2022-08-21T07:46:45;99109.00;;;20.89;100.00
10921;BME280;5513;50.580;8.818;2022-08-21T07:49:13;99106.94;;;20.74;100.00
10921;BME280;5513;50.580;8.818;2022-08-21T07:51:42;99108.03;;;21.14;100.00
10921;BME280;5513;50.580;8.818;2022-08-21T07:54:10;99098.41;;;20.87;100.00
10921;BME280;5513;50.580;8.818;2022-08-21T07:56:43;99101.16;;;21.28;100.00
10921;BME280;5513;50.580;8.818;2022-08-21T07:59:12;99089.56;;;21.35;100.00
10921;BME280;5513;50.580;8.818;2022-08-21T08:01:43;99099.16;;;21.62;100.00
10921;BME280;5513;50.580;8.818;2022-08-21T08:04:11;99096.09;;;21.57;100.00
10921;BME280;5513;50.580;8.818;2022-08-21T08:06:42;99093.59;;;21.31;100.00
10921;BME280;5513;50.580;8.818;2022-08-21T08:09:11;99096.28;;;21.72;100.00
10921;BME280;5513;50.580;8.818;2022-08-21T08:11:41;99094.59;;;21.63;100.00
10921;BME280;5513;50.580;8.818;2022-08-21T08:14:10;99095.44;;;21.71;100.00
10921;BME280;5513;50.580;8.818;2022-08-21T08:16:39;99092.88;;;21.86;100.00
10921;BME280;5513;50.580;8.818;2022-08-21T08:19:09;99094.97;;;22.32;100.00
10921;BME280;5513;50.580;8.818;2022-08-21T08:21:38;99094.22;;;22.46;100.00
10921;BME280;5513;50.580;8.818;2022-08-21T08:24:07;99095.34;;;22.60;100.00
10921;BME280;5513;50.580;8.818;2022-08-21T08:26:45;99091.91;;;22.66;100.00
10921;BME280;5513;50.580;8.818;2022-08-21T08:29:20;99092.00;;;22.89;100.00
10921;BME280;5513;50.580;8.818;2022-08-21T08:31:48;99090.97;;;23.12;100.00
10921;BME280;5513;50.580;8.818;2022-08-21T08:34:18;99089.13;;;22.90;100.00
10921;BME280;5513;50.580;8.818;2022-08-21T08:36:51;99086.69;;;22.33;100.00
10921;BME280;5513;50.580;8.818;2022-08-21T08:39:27;99078.19;;;22.44;100.00
10921;BME280;5513;50.580;8.818;2022-08-21T08:41:59;99089.38;;;22.33;100.00
10921;BME280;5513;50.580;8.818;2022-08-21T08:44:57;99081.38;;;22.48;100.00
10921;BME280;5513;50.580;8.818;2022-08-21T08:47:30;99078.59;;;22.64;99.02
10921;BME280;5513;50.580;8.818;2022-08-21T08:50:05;99075.28;;;22.85;96.10
10921;BME280;5513;50.580;8.818;2022-08-21T08:52:40;99079.09;;;22.99;95.85
10921;BME280;5513;50.580;8.818;2022-08-21T08:55:13;99075.41;;;23.14;93.56
10921;BME280;5513;50.580;8.818;2022-08-21T08:57:46;99074.94;;;23.11;92.48
10921;BME280;5513;50.580;8.818;2022-08-21T09:00:18;99075.19;;;23.24;91.62
10921;BME280;5513;50.580;8.818;2022-08-21T09:02:51;99081.22;;;23.49;85.58
10921;BME280;5513;50.580;8.818;2022-08-21T09:05:28;99071.19;;;23.58;87.82
10921;BME280;5513;50.580;8.818;2022-08-21T09:08:11;99066.00;;;23.71;87.03
10921;BME280;5513;50.580;8.818;2022-08-21T09:10:51;99058.91;;;23.70;84.03
10921;BME280;5513;50.580;8.818;2022-08-21T09:13:28;99055.00;;;23.87;84.78
10921;BME280;5513;50.580;8.818;2022-08-21T09:16:11;99053.44;;;24.08;78.49
10921;BME280;5513;50.580;8.818;2022-08-21T09:18:48;99049.03;;;24.36;75.82
10921;BME280;5513;50.580;8.818;2022-08-21T09:21:35;99045.84;;;24.47;75.67
10921;BME280;5513;50.580;8.818;2022-08-21T09:24:29;99046.88;;;24.17;78.50
10921;BME280;5513;50.580;8.818;2022-08-21T09:27:04;99048.97;;;23.48;77.77
10921;BME280;5513;50.580;8.818;2022-08-21T09:29:39;99048.75;;;23.87;75.46
10921;BME280;5513;50.580;8.818;2022-08-21T09:32:13;99052.97;;;24.04;75.72
10921;BME280;5513;50.580;8.818;2022-08-21T09:34:56;99043.25;;;24.39;73.97
10921;BME280;5513;50.580;8.818;2022-08-21T09:37:28;99059.50;;;24.97;71.52
10921;BME280;5513;50.580;8.818;2022-08-21T09:40:01;99062.84;;;23.67;75.09
10921;BME280;5513;50.580;8.818;2022-08-21T09:42:31;99064.34;;;24.14;72.05
10921;BME280;5513;50.580;8.818;2022-08-21T09:45:12;99049.41;;;24.18;71.42
10921;BME280;5513;50.580;8.818;2022-08-21T09:47:42;99041.13;;;24.71;67.39
10921;BME280;5513;50.580;8.818;2022-08-21T09:50:15;99050.47;;;25.04;65.81
10921;BME280;5513;50.580;8.818;2022-08-21T09:52:54;99040.78;;;25.45;64.62
10921;BME280;5513;50.580;8.818;2022-08-21T09:55:32;99045.16;;;25.39;62.06
10921;BME280;5513;50.580;8.818;2022-08-21T09:58:19;99056.19;;;24.59;66.93
10921;BME280;5513;50.580;8.818;2022-08-21T10:00:57;99048.00;;;24.37;69.04
10921;BME280;5513;50.580;8.818;2022-08-21T10:03:27;99045.13;;;24.96;65.91
10921;BME280;5513;50.580;8.818;2022-08-21T10:05:59;99039.06;;;24.37;67.67
10921;BME280;5513;50.580;8.818;2022-08-21T10:08:32;99033.13;;;25.27;64.90
10921;BME280;5513;50.580;8.818;2022-08-21T10:11:04;99034.41;;;25.80;61.22
10921;BME280;5513;50.580;8.818;2022-08-21T10:13:41;99024.41;;;26.15;59.16
10921;BME280;5513;50.580;8.818;2022-08-21T10:16:25;99028.09;;;26.49;58.52
10921;BME280;5513;50.580;8.818;2022-08-21T10:19:12;99024.56;;;26.07;57.24
10921;BME280;5513;50.580;8.818;2022-08-21T10:21:52;99020.22;;;26.19;57.16
10921;BME280;5513;50.580;8.818;2022-08-21T10:24:31;99022.63;;;25.17;60.97
10921;BME280;5513;50.580;8.818;2022-08-21T10:27:15;99017.19;;;25.38;60.05
10921;BME280;5513;50.580;8.818;2022-08-21T10:29:51;99015.00;;;26.18;57.46
10921;BME280;5513;50.580;8.818;2022-08-21T10:32:54;99009.78;;;26.16;55.92
10921;BME280;5513;50.580;8.818;2022-08-21T10:35:27;99009.31;;;26.13;54.41
10921;BME280;5513;50.580;8.818;2022-08-21T10:38:42;99010.84;;;26.76;54.29
10921;BME280;5513;50.580;8.818;2022-08-21T10:42:00;99005.00;;;26.93;51.67
10921;BME280;5513;50.580;8.818;2022-08-21T10:44:37;99001.09;;;27.15;50.81
10921;BME280;5513;50.580;8.818;2022-08-21T10:47:12;98993.94;;;27.60;50.06
10921;BME280;5513;50.580;8.818;2022-08-21T10:49:51;99003.34;;;27.58;49.23
10921;BME280;5513;50.580;8.818;2022-08-21T10:52:36;99000.25;;;27.34;49.28
10921;BME280;5513;50.580;8.818;2022-08-21T10:55:14;98992.53;;;28.29;46.58
10921;BME280;5513;50.580;8.818;2022-08-21T10:57:48;98996.00;;;27.85;47.33
10921;BME280;5513;50.580;8.818;2022-08-21T11:00:20;98988.50;;;27.60;48.03
10921;BME280;5513;50.580;8.818;2022-08-21T11:02:55;98987.81;;;28.49;45.15
10921;BME280;5513;50.580;8.818;2022-08-21T11:05:30;98987.38;;;28.01;44.69
10921;BME280;5513;50.580;8.818;2022-08-21T11:08:03;98991.44;;;26.32;49.85
10921;BME280;5513;50.580;8.818;2022-08-21T11:10:39;98992.69;;;26.29;49.28
10921;BME280;5513;50.580;8.818;2022-08-21T11:13:33;98985.78;;;27.41;47.13
10921;BME280;5513;50.580;8.818;2022-08-21T11:16:13;98978.44;;;27.74;46.90
10921;BME280;5513;50.580;8.818;2022-08-21T11:18:49;98972.16;;;28.38;44.97
10921;BME280;5513;50.580;8.818;2022-08-21T11:21:33;98973.16;;;28.44;44.52
10921;BME280;5513;50.580;8.818;2022-08-21T11:24:15;98974.69;;;27.55;47.35
10921;BME280;5513;50.580;8.818;2022-08-21T11:26:51;98972.53;;;28.48;45.18
10921;BME280;5513;50.580;8.818;2022-08-21T11:29:27;98984.28;;;27.78;45.80
10921;BME280;5513;50.580;8.818;2022-08-21T11:32:21;98978.44;;;27.48;44.57
10921;BME280;5513;50.580;8.818;2022-08-21T11:34:58;98970.09;;;27.29;46.03
10921;BME280;5513;50.580;8.818;2022-08-21T11:37:43;98960.97;;;28.02;44.58
10921;BME280;5513;50.580;8.818;2022-08-21T11:40:23;98962.97;;;28.33;44.47
10921;BME280;5513;50.580;8.818;2022-08-21T11:42:58;98965.53;;;28.08;45.78
10921;BME280;5513;50.580;8.818;2022-08-21T11:45:39;98968.03;;;28.29;43.90
10921;BME280;5513;50.580;8.818;2022-08-21T11:48:19;98964.38;;;28.73;42.73
10921;BME280;5513;50.580;8.818;2022-08-21T11:50:52;98962.19;;;28.06;44.56
10921;BME280;5513;50.580;8.818;2022-08-21T11:53:26;98953.13;;;27.60;44.22
10921;BME280;5513;50.580;8.818;2022-08-21T11:56:01;98956.88;;;28.24;43.86
10921;BME280;5513;50.580;8.818;2022-08-21T11:58:34;98952.34;;;28.88;42.53
10921;BME280;5513;50.580;8.818;2022-08-21T12:01:09;98948.47;;;29.52;39.44
10921;BME280;5513;50.580;8.818;2022-08-21T12:03:41;98946.88;;;29.62;40.05
10921;BME280;5513;50.580;8.818;2022-08-21T12:06:13;98945.53;;;29.90;39.80
10921;BME280;5513;50.580;8.818;2022-08-21T12:08:58;98938.31;;;30.32;38.75
10921;BME280;5513;50.580;8.818;2022-08-21T12:11:27;98935.88;;;30.54;37.67
10921;BME280;5513;50.580;8.818;2022-08-21T12:14:11;98939.53;;;29.81;38.53
10921;BME280;5513;50.580;8.818;2022-08-21T12:16:45;98940.16;;;29.83;39.23
10921;BME280;5513;50.580;8.818;2022-08-21T12:19:28;98934.94;;;30.30;38.48
10921;BME280;5513;50.580;8.818;2022-08-21T12:21:59;98931.44;;;30.71;37.92
10921;BME280;5513;50.580;8.818;2022-08-21T12:24:37;98927.69;;;31.08;36.29
10921;BME280;5513;50.580;8.818;2022-08-21T12:27:20;98929.66;;;30.77;35.86
10921;BME280;5513;50.580;8.818;2022-08-21T12:29:54;98941.16;;;29.46;38.72
10921;BME280;5513;50.580;8.818;2022-08-21T12:32:27;98934.09;;;28.88;40.93
10921;BME280;5513;50.580;8.818;2022-08-21T12:35:02;98931.00;;;29.53;40.71
10921;BME280;5513;50.580;8.818;2022-08-21T12:37:43;98940.59;;;29.99;40.26
10921;BME280;5513;50.580;8.818;2022-08-21T12:40:20;98933.47;;;30.16;38.63
10921;BME280;5513;50.580;8.818;2022-08-21T12:42:52;98934.13;;;31.13;38.07
10921;BME280;5513;50.580;8.818;2022-08-21T12:45:30;98929.41;;;31.44;37.94
10921;BME280;5513;50.580;8.818;2022-08-21T12:48:09;98931.78;;;31.75;36.66
10921;BME280;5513;50.580;8.818;2022-08-21T12:50:42;98928.94;;;31.47;35.89
10921;BME280;5513;50.580;8.818;2022-08-21T12:53:23;98932.38;;;31.42;36.22
10921;BME280;5513;50.580;8.818;2022-08-21T12:55:53;98924.91;;;31.38;36.23
10921;BME280;5513;50.580;8.818;2022-08-21T12:58:27;98918.63;;;31.07;36.77
10921;BME280;5513;50.580;8.818;2022-08-21T13:01:01;98925.91;;;30.90;36.81
10921;BME280;5513;50.580;8.818;2022-08-21T13:03:36;98922.25;;;31.43;35.41
10921;BME280;5513;50.580;8.818;2022-08-21T13:06:06;98910.75;;;31.93;34.29
10921;BME280;5513;50.580;8.818;2022-08-21T13:08:38;98900.69;;;32.67;33.22
10921;BME280;5513;50.580;8.818;2022-08-21T13:11:16;98905.63;;;32.82;33.67
10921;BME280;5513;50.580;8.818;2022-08-21T13:14:00;98897.94;;;32.50;33.88
10921;BME280;5513;50.580;8.818;2022-08-21T13:16:31;98910.69;;;31.87;34.43
10921;BME280;5513;50.580;8.818;2022-08-21T13:19:06;98898.78;;;32.67;33.91
10921;BME280;5513;50.580;8.818;2022-08-21T13:21:41;98893.53;;;32.49;34.52
10921;BME280;5513;50.580;8.818;2022-08-21T13:24:16;98895.69;;;32.47;34.62
10921;BME280;5513;50.580;8.818;2022-08-21T13:27:18;98897.16;;;33.17;33.58
10921;BME280;5513;50.580;8.818;2022-08-21T13:29:47;98885.19;;;32.89;33.51
10921;BME280;5513;50.580;8.818;2022-08-21T13:32:22;98893.50;;;33.11;33.72
10921;BME280;5513;50.580;8.818;2022-08-21T13:34:57;98889.53;;;33.02;33.39
10921;BME280;5513;50.580;8.818;2022-08-21T13:37:26;98879.94;;;32.88;32.77